createdAt,value
2022-08-16T00:01:44.263Z,27.71
2022-08-16T00:04:35.016Z,27.69
2022-08-16T00:07:26.329Z,27.67
2022-08-16T00:10:21.215Z,27.66
2022-08-16T00:13:13.115Z,27.63
2022-08-16T00:17:06.715Z,27.61
2022-08-16T00:19:22.560Z,27.60
2022-08-16T00:22:15.531Z,27.58
2022-08-16T00:25:10.106Z,27.56
2022-08-16T00:28:01.708Z,27.55
2022-08-16T00:30:52.182Z,27.53
2022-08-16T00:33:50.113Z,27.52
2022-08-16T00:36:40.206Z,27.50
2022-08-16T00:39:39.940Z,27.49
2022-08-16T00:42:32.643Z,27.48
2022-08-16T00:45:35.593Z,27.48
2022-08-16T00:48:30.298Z,27.47
2022-08-16T00:51:25.170Z,27.47
2022-08-16T00:54:23.382Z,27.48
2022-08-16T00:57:16.224Z,27.47
2022-08-16T01:00:08.987Z,27.46
2022-08-16T01:03:11.657Z,27.44
2022-08-16T01:06:40.650Z,27.46
2022-08-16T01:09:13.126Z,27.46
2022-08-16T01:12:08.445Z,27.46
2022-08-16T01:15:01.313Z,27.45
2022-08-16T01:17:56.179Z,27.43
2022-08-16T01:20:53.378Z,27.42
2022-08-16T01:24:02.488Z,27.40
2022-08-16T01:26:57.702Z,27.38
2022-08-16T01:30:00.397Z,27.36
2022-08-16T01:32:59.599Z,27.35
2022-08-16T01:35:58.697Z,27.32
2022-08-16T01:38:57.214Z,27.32
2022-08-16T01:41:49.913Z,27.30
2022-08-16T01:44:41.132Z,27.28
2022-08-16T01:47:35.397Z,27.26
2022-08-16T01:50:42.605Z,27.24
2022-08-16T01:53:40.729Z,27.23
2022-08-16T01:56:41.449Z,27.22
2022-08-16T01:59:35.390Z,27.20
2022-08-16T02:02:28.805Z,27.21
2022-08-16T02:05:18.947Z,27.22
2022-08-16T02:08:32.969Z,27.21
2022-08-16T02:11:24.423Z,27.20
2022-08-16T02:14:18.409Z,27.19
2022-08-16T02:17:13.346Z,27.18
2022-08-16T02:20:11.381Z,27.18
2022-08-16T02:23:05.617Z,27.17
2022-08-16T02:25:56.851Z,27.17
2022-08-16T02:28:52.794Z,27.18
2022-08-16T02:32:03.055Z,27.19
2022-08-16T02:34:56.456Z,27.18
2022-08-16T02:37:52.434Z,27.18
2022-08-16T02:40:47.803Z,27.17
2022-08-16T02:43:40.244Z,27.17
2022-08-16T02:46:33.647Z,27.16
2022-08-16T02:49:32.261Z,27.15
2022-08-16T02:52:36.492Z,27.15
2022-08-16T02:55:40.876Z,27.18
2022-08-16T02:58:32.794Z,27.19
2022-08-16T03:01:33.741Z,27.19
2022-08-16T03:04:50.324Z,27.17
2022-08-16T03:07:50.491Z,27.15
2022-08-16T03:10:43.009Z,27.13
2022-08-16T03:13:40.294Z,27.14
2022-08-16T03:16:38.222Z,27.13
2022-08-16T03:19:47.175Z,27.11
2022-08-16T03:22:45.377Z,27.00
2022-08-16T03:25:43.185Z,26.89
2022-08-16T03:28:40.430Z,26.84
2022-08-16T03:31:34.578Z,26.81
2022-08-16T03:34:33.329Z,26.81
2022-08-16T03:37:24.858Z,26.82
2022-08-16T03:40:23.296Z,26.83
2022-08-16T03:43:24.550Z,26.86
2022-08-16T03:46:47.826Z,26.87
2022-08-16T03:49:44.433Z,26.88
2022-08-16T03:52:35.643Z,26.89
2022-08-16T03:55:31.355Z,26.89
2022-08-16T03:58:37.296Z,26.88
2022-08-16T04:01:29.950Z,26.88
2022-08-16T04:04:25.067Z,26.88
2022-08-16T04:07:25.780Z,26.87
2022-08-16T04:10:36.872Z,26.86
2022-08-16T04:14:01.222Z,26.85
2022-08-16T04:16:39.718Z,26.84
2022-08-16T04:19:51.704Z,26.82
2022-08-16T04:22:48.833Z,26.81
2022-08-16T04:25:40.988Z,26.80
2022-08-16T04:28:55.900Z,26.80
2022-08-16T04:31:43.696Z,26.79
2022-08-16T04:34:36.941Z,26.79
2022-08-16T04:37:29.574Z,26.80
2022-08-16T04:40:29.875Z,26.80
2022-08-16T04:43:21.081Z,26.79
2022-08-16T04:47:00.328Z,26.78
2022-08-16T04:49:38.528Z,26.77
2022-08-16T04:52:37.903Z,26.76
2022-08-16T04:55:37.819Z,26.76
2022-08-16T04:58:38.335Z,26.76
2022-08-16T05:01:55.971Z,26.76
2022-08-16T05:04:46.928Z,26.75
2022-08-16T05:07:38.030Z,26.75
2022-08-16T05:10:47.949Z,26.75
2022-08-16T05:13:42.599Z,26.76
2022-08-16T05:16:35.899Z,26.77
2022-08-16T05:19:36.096Z,26.79
2022-08-16T05:22:38.576Z,26.80
2022-08-16T05:25:40.954Z,26.98
2022-08-16T05:28:40.036Z,27.30
2022-08-16T05:31:32.427Z,27.56
2022-08-16T05:34:23.485Z,27.80
2022-08-16T05:37:16.141Z,27.95
2022-08-16T05:40:10.876Z,28.05
2022-08-16T05:43:04.340Z,28.12
2022-08-16T05:45:55.867Z,28.15
2022-08-16T05:48:55.042Z,28.21
2022-08-16T05:51:51.405Z,28.29
2022-08-16T05:54:46.636Z,28.29
2022-08-16T05:57:37.807Z,28.30
2022-08-16T06:00:33.215Z,28.38
2022-08-16T06:03:24.162Z,28.47
2022-08-16T06:06:28.067Z,28.56
2022-08-16T06:09:20.561Z,28.59
2022-08-16T06:12:12.723Z,28.57
2022-08-16T06:15:20.691Z,28.54
2022-08-16T06:18:10.747Z,28.51
2022-08-16T06:21:02.857Z,28.51
2022-08-16T06:23:54.316Z,28.55
2022-08-16T06:26:57.715Z,28.55
2022-08-16T06:29:50.719Z,28.59
2022-08-16T06:32:43.771Z,28.59
2022-08-16T06:35:41.495Z,28.61
2022-08-16T06:38:34.493Z,28.66
2022-08-16T06:41:39.844Z,28.67
2022-08-16T06:44:39.239Z,28.68
2022-08-16T06:47:53.790Z,28.68
2022-08-16T06:50:44.957Z,28.69
2022-08-16T06:53:38.522Z,28.69
2022-08-16T06:56:29.422Z,28.69
2022-08-16T06:59:29.362Z,28.71
2022-08-16T07:02:33.111Z,28.70
2022-08-16T07:05:27.044Z,28.72
2022-08-16T07:08:35.175Z,28.76
2022-08-16T07:11:45.365Z,28.81
2022-08-16T07:14:39.566Z,28.89
2022-08-16T07:17:32.878Z,28.94
2022-08-16T07:20:35.386Z,28.99
2022-08-16T07:23:38.847Z,29.02
2022-08-16T07:26:30.930Z,29.05
2022-08-16T07:29:21.688Z,29.07
2022-08-16T07:32:12.420Z,29.11
2022-08-16T07:35:06.329Z,29.14
2022-08-16T07:37:59.578Z,29.19
2022-08-16T07:41:11.021Z,29.23
2022-08-16T07:44:16.133Z,29.28
2022-08-16T07:47:07.966Z,29.35
2022-08-16T07:50:07.693Z,29.41
2022-08-16T07:53:00.218Z,29.44
2022-08-16T07:55:52.977Z,29.47
2022-08-16T07:58:49.027Z,29.49
2022-08-16T08:01:45.846Z,29.51
2022-08-16T08:04:36.711Z,29.55
2022-08-16T08:07:28.647Z,29.59
2022-08-16T08:10:29.589Z,29.61
2022-08-16T08:13:41.767Z,29.64
2022-08-16T08:16:32.318Z,29.69
2022-08-16T08:19:24.630Z,29.74
2022-08-16T08:22:19.456Z,29.79
2022-08-16T08:25:16.285Z,29.85
2022-08-16T08:28:10.944Z,29.90
2022-08-16T08:31:04.355Z,29.94
2022-08-16T08:34:00.607Z,29.99
2022-08-16T08:36:56.529Z,30.04
2022-08-16T08:40:08.685Z,30.09
2022-08-16T08:43:11.863Z,30.14
2022-08-16T08:46:17.786Z,30.18
2022-08-16T08:49:11.254Z,30.22
2022-08-16T08:52:08.015Z,30.27
2022-08-16T08:55:05.035Z,30.33
2022-08-16T08:58:00.732Z,30.38
2022-08-16T09:01:05.753Z,30.44
2022-08-16T09:04:03.703Z,30.48
2022-08-16T09:06:55.296Z,30.54
2022-08-16T09:09:47.802Z,30.58
2022-08-16T09:12:39.039Z,30.64
2022-08-16T09:15:33.588Z,30.69
2022-08-16T09:18:27.180Z,30.74
2022-08-16T09:21:31.363Z,30.79
2022-08-16T09:24:46.727Z,30.82
2022-08-16T09:27:56.498Z,30.86
2022-08-16T09:30:44.169Z,30.90
2022-08-16T09:33:37.337Z,30.95
2022-08-16T09:36:31.807Z,30.99
2022-08-16T09:39:23.730Z,31.06
2022-08-16T09:42:15.731Z,31.14
2022-08-16T09:45:16.572Z,31.20
2022-08-16T09:48:09.249Z,31.28
2022-08-16T09:50:59.758Z,31.36
2022-08-16T09:53:53.929Z,31.45
2022-08-16T09:56:53.455Z,31.53
2022-08-16T09:59:44.658Z,31.59
2022-08-16T10:02:44.113Z,31.66
2022-08-16T10:05:37.372Z,31.76
2022-08-16T10:08:27.751Z,31.82
2022-08-16T10:11:49.840Z,31.87
2022-08-16T10:14:45.881Z,31.96
2022-08-16T10:17:36.416Z,32.04
2022-08-16T10:20:27.922Z,32.11
2022-08-16T10:23:18.395Z,32.15
2022-08-16T10:27:20.521Z,32.16
2022-08-16T10:29:21.077Z,32.17
2022-08-16T10:32:11.279Z,32.22
2022-08-16T10:35:03.327Z,32.27
2022-08-16T10:37:53.826Z,32.28
2022-08-16T10:40:45.679Z,32.25
2022-08-16T10:43:36.694Z,32.24
2022-08-16T10:46:39.246Z,32.25
2022-08-16T10:49:32.926Z,32.25
2022-08-16T10:52:24.754Z,32.30
2022-08-16T10:58:34.684Z,32.40
2022-08-16T11:01:39.808Z,32.44
2022-08-16T11:07:52.059Z,32.52
2022-08-16T11:11:06.484Z,32.58
2022-08-16T11:14:06.169Z,32.63
2022-08-16T11:17:10.497Z,32.64
2022-08-16T11:20:41.412Z,32.64
2022-08-16T11:23:12.105Z,32.64
2022-08-16T11:26:10.408Z,32.66
2022-08-16T11:29:14.246Z,32.69
2022-08-16T11:32:06.106Z,32.68
2022-08-16T11:35:13.446Z,32.69
2022-08-16T11:38:47.285Z,32.71
2022-08-16T11:41:17.682Z,32.69
2022-08-16T11:44:09.449Z,32.59
2022-08-16T11:47:04.142Z,32.40
2022-08-16T11:49:54.872Z,32.31
2022-08-16T11:52:46.734Z,32.25
2022-08-16T11:55:40.358Z,32.19
2022-08-16T11:58:35.341Z,32.06
2022-08-16T12:01:29.642Z,31.87
2022-08-16T12:04:35.171Z,31.64
2022-08-16T12:07:25.678Z,31.55
2022-08-16T12:10:18.404Z,31.44
2022-08-16T12:13:13.988Z,31.34
2022-08-16T12:16:04.514Z,31.20
2022-08-16T12:18:54.541Z,31.00
2022-08-16T12:21:58.055Z,30.79
2022-08-16T12:24:51.240Z,30.68
2022-08-16T12:27:49.666Z,30.61
2022-08-16T12:30:42.857Z,30.50
2022-08-16T12:33:42.736Z,30.50
2022-08-16T12:36:35.266Z,30.54
2022-08-16T12:39:29.155Z,30.57
2022-08-16T12:42:20.842Z,30.67
2022-08-16T12:45:15.449Z,30.72
2022-08-16T12:48:36.049Z,30.70
2022-08-16T12:51:32.883Z,30.69
2022-08-16T12:54:39.787Z,30.70
2022-08-16T12:57:36.540Z,30.72
2022-08-16T13:00:33.622Z,30.70
2022-08-16T13:03:23.943Z,30.61
2022-08-16T13:06:20.203Z,30.56
2022-08-16T13:09:26.732Z,30.50
2022-08-16T13:12:25.063Z,30.38
2022-08-16T13:15:18.395Z,30.40
2022-08-16T13:18:23.861Z,30.44
2022-08-16T13:21:17.925Z,30.50
2022-08-16T13:24:08.783Z,30.54
2022-08-16T13:26:59.544Z,30.57
2022-08-16T13:29:57.576Z,30.62
2022-08-16T13:32:52.102Z,30.62
2022-08-16T13:35:44.924Z,30.60
2022-08-16T13:38:37.880Z,30.67
2022-08-16T13:41:30.341Z,30.75
2022-08-16T13:44:21.565Z,30.81
2022-08-16T13:47:11.528Z,30.74
2022-08-16T13:50:03.508Z,30.73
2022-08-16T13:52:53.591Z,30.73
2022-08-16T13:55:47.522Z,30.76
2022-08-16T13:58:54.845Z,30.74
2022-08-16T14:01:55.550Z,30.69
2022-08-16T14:04:47.426Z,30.61
2022-08-16T14:07:55.440Z,30.60
2022-08-16T14:10:45.838Z,30.66
2022-08-16T14:13:36.066Z,30.71
2022-08-16T14:16:33.686Z,30.74
2022-08-16T14:19:26.405Z,30.70
2022-08-16T14:22:31.154Z,30.68
2022-08-16T14:25:28.272Z,30.64
2022-08-16T14:28:19.036Z,30.66
2022-08-16T14:31:13.840Z,30.57
2022-08-16T14:34:06.494Z,30.48
2022-08-16T14:37:01.182Z,30.41
2022-08-16T14:39:52.443Z,30.39
2022-08-16T14:42:44.189Z,30.46
2022-08-16T14:45:36.913Z,30.50
2022-08-16T14:48:26.863Z,30.55
2022-08-16T14:51:18.983Z,30.52
2022-08-16T14:54:15.180Z,30.54
2022-08-16T14:57:06.023Z,30.57
2022-08-16T15:00:00.751Z,30.62
2022-08-16T15:02:58.091Z,30.67
2022-08-16T15:05:48.276Z,30.70
2022-08-16T15:08:40.338Z,30.72
2022-08-16T15:11:31.036Z,30.75
2022-08-16T15:14:23.130Z,30.73
2022-08-16T15:17:15.064Z,30.70
2022-08-16T15:20:11.089Z,30.65
2022-08-16T15:23:06.014Z,30.63
2022-08-16T15:26:03.060Z,30.63
2022-08-16T15:28:54.238Z,30.63
2022-08-16T15:31:48.366Z,30.64
2022-08-16T15:34:44.719Z,30.63
2022-08-16T15:37:42.624Z,30.65
2022-08-16T15:40:35.315Z,30.61
2022-08-16T15:43:27.153Z,30.46
2022-08-16T15:46:35.705Z,30.39
2022-08-16T15:49:38.912Z,30.39
2022-08-16T15:52:38.993Z,30.42
2022-08-16T15:55:35.141Z,30.43
2022-08-16T15:58:34.866Z,30.46
2022-08-16T16:01:26.112Z,30.52
2022-08-16T16:04:22.860Z,30.52
2022-08-16T16:07:13.325Z,30.45
2022-08-16T16:10:07.818Z,30.33
2022-08-16T16:12:58.624Z,30.21
2022-08-16T16:15:51.992Z,30.14
2022-08-16T16:18:48.715Z,30.11
2022-08-16T16:21:39.369Z,30.07
2022-08-16T16:24:30.777Z,30.05
2022-08-16T16:27:22.769Z,30.02
2022-08-16T16:30:33.037Z,29.99
2022-08-16T16:33:28.774Z,29.98
2022-08-16T16:36:24.346Z,30.01
2022-08-16T16:39:18.149Z,30.02
2022-08-16T16:42:08.704Z,30.02
2022-08-16T16:45:19.191Z,30.00
2022-08-16T16:48:12.024Z,29.97
2022-08-16T16:51:09.154Z,29.95
2022-08-16T16:54:03.775Z,29.92
2022-08-16T16:56:54.423Z,29.85
2022-08-16T16:59:44.502Z,29.75
2022-08-16T17:02:41.768Z,29.65
2022-08-16T17:05:40.694Z,29.61
2022-08-16T17:08:30.553Z,29.51
2022-08-16T17:11:20.467Z,29.41
2022-08-16T17:14:32.120Z,29.38
2022-08-16T17:17:21.743Z,29.42
2022-08-16T17:20:14.029Z,29.49
2022-08-16T17:23:05.088Z,29.49
2022-08-16T17:25:55.493Z,29.48
2022-08-16T17:28:59.934Z,29.52
2022-08-16T17:31:53.019Z,29.64
2022-08-16T17:34:45.492Z,29.70
2022-08-16T17:37:48.756Z,29.72
2022-08-16T17:40:58.123Z,29.75
2022-08-16T17:43:49.652Z,29.76
2022-08-16T17:46:50.683Z,29.80
2022-08-16T17:49:41.854Z,29.80
2022-08-16T17:52:32.212Z,29.80
2022-08-16T17:55:27.682Z,29.81
2022-08-16T17:58:22.657Z,29.81
2022-08-16T18:01:14.393Z,29.80
2022-08-16T18:04:08.275Z,29.81
2022-08-16T18:07:00.169Z,29.80
2022-08-16T18:09:52.304Z,29.77
2022-08-16T18:12:50.733Z,29.75
2022-08-16T18:15:46.302Z,29.68
2022-08-16T18:18:36.255Z,29.68
2022-08-16T18:21:43.571Z,29.71
2022-08-16T18:24:35.098Z,29.73
2022-08-16T18:27:27.254Z,29.72
2022-08-16T18:30:17.735Z,29.71
2022-08-16T18:33:07.956Z,29.72
2022-08-16T18:35:58.465Z,29.71
2022-08-16T18:38:48.189Z,29.72
2022-08-16T18:41:38.563Z,29.76
2022-08-16T18:44:33.321Z,29.76
2022-08-16T18:47:24.647Z,29.68
2022-08-16T18:50:14.348Z,29.62
2022-08-16T18:53:06.152Z,29.58
2022-08-16T18:55:59.000Z,29.57
2022-08-16T18:58:49.012Z,29.59
2022-08-16T19:01:39.215Z,29.61
2022-08-16T19:04:56.152Z,29.63
2022-08-16T19:07:41.993Z,29.65
2022-08-16T19:10:33.039Z,29.72
2022-08-16T19:13:25.524Z,29.75
2022-08-16T19:16:16.486Z,29.78
2022-08-16T19:19:11.789Z,29.82
2022-08-16T19:22:01.482Z,29.80
2022-08-16T19:24:51.102Z,29.79
2022-08-16T19:27:42.706Z,29.78
2022-08-16T19:30:32.836Z,29.76
2022-08-16T19:33:23.121Z,29.73
2022-08-16T19:36:31.038Z,29.76
2022-08-16T19:39:22.362Z,29.77
2022-08-16T19:42:17.922Z,29.74
2022-08-16T19:45:09.587Z,29.75
2022-08-16T19:48:03.698Z,29.77
2022-08-16T19:50:53.830Z,29.77
2022-08-16T19:53:44.203Z,29.76
2022-08-16T19:56:34.148Z,29.79
2022-08-16T19:59:40.479Z,29.80
2022-08-16T20:02:36.430Z,29.80
2022-08-16T20:05:29.979Z,29.79
2022-08-16T20:08:22.277Z,29.81
2022-08-16T20:11:12.381Z,29.83
2022-08-16T20:14:02.343Z,29.85
2022-08-16T20:16:52.714Z,29.84
2022-08-16T20:19:44.070Z,29.81
2022-08-16T20:22:52.977Z,29.79
2022-08-16T20:25:49.631Z,29.77
2022-08-16T20:28:52.605Z,29.74
2022-08-16T20:31:44.543Z,29.70
2022-08-16T20:34:35.086Z,29.65
2022-08-16T20:37:25.353Z,29.61
2022-08-16T20:40:34.419Z,29.61
2022-08-16T20:43:25.847Z,29.52
2022-08-16T20:46:16.872Z,29.42
2022-08-16T20:49:08.965Z,29.36
2022-08-16T20:52:00.498Z,29.32
2022-08-16T20:54:50.358Z,29.29
2022-08-16T20:57:40.797Z,29.20
2022-08-16T21:00:32.305Z,29.13
2022-08-16T21:03:22.671Z,29.05
2022-08-16T21:06:12.789Z,28.99
2022-08-16T21:09:04.923Z,28.93
2022-08-16T21:11:56.054Z,28.85
2022-08-16T21:14:48.365Z,28.80
2022-08-16T21:17:39.137Z,28.77
2022-08-16T21:20:31.145Z,28.75
2022-08-16T21:23:21.273Z,28.75
2022-08-16T21:26:11.882Z,28.75
2022-08-16T21:29:02.693Z,28.76
2022-08-16T21:31:57.099Z,28.79
2022-08-16T21:34:50.032Z,28.81
2022-08-16T21:37:40.470Z,28.85
2022-08-16T21:40:32.478Z,28.89
2022-08-16T21:43:24.541Z,28.96
2022-08-16T21:46:15.032Z,29.00
2022-08-16T21:49:06.046Z,29.03
2022-08-16T21:51:57.109Z,29.03
2022-08-16T21:54:47.114Z,29.01
2022-08-16T21:57:37.383Z,28.99
2022-08-16T22:00:28.326Z,28.97
2022-08-16T22:03:19.578Z,28.96
2022-08-16T22:06:13.041Z,28.92
2022-08-16T22:09:05.067Z,28.89
2022-08-16T22:11:55.962Z,28.88
2022-08-16T22:14:46.140Z,28.86
2022-08-16T22:17:35.797Z,28.85
2022-08-16T22:20:29.416Z,28.88
2022-08-16T22:23:23.023Z,28.88
2022-08-16T22:26:14.807Z,28.86
2022-08-16T22:29:06.964Z,28.84
2022-08-16T22:31:56.969Z,28.81
2022-08-16T22:34:50.121Z,28.78
2022-08-16T22:37:41.907Z,28.75
2022-08-16T22:40:53.445Z,28.71
2022-08-16T22:43:46.046Z,28.68
2022-08-16T22:46:37.875Z,28.63
2022-08-16T22:49:29.047Z,28.60
2022-08-16T22:52:48.896Z,28.58
2022-08-16T22:55:30.093Z,28.55
2022-08-16T22:58:20.535Z,28.51
2022-08-16T23:01:27.299Z,28.49
2022-08-16T23:04:18.092Z,28.46
2022-08-16T23:07:08.619Z,28.44
2022-08-16T23:10:01.563Z,28.43
2022-08-16T23:12:53.509Z,28.42
2022-08-16T23:15:46.720Z,28.40
2022-08-16T23:18:42.346Z,28.37
2022-08-16T23:21:33.096Z,28.33
2022-08-16T23:24:27.645Z,28.31
2022-08-16T23:27:17.682Z,28.28
2022-08-16T23:30:09.205Z,28.27
2022-08-16T23:33:01.234Z,28.26
2022-08-16T23:35:53.491Z,28.25
2022-08-16T23:38:44.407Z,28.23
2022-08-16T23:41:35.352Z,28.22
2022-08-16T23:44:42.347Z,28.22
2022-08-16T23:47:36.088Z,28.22
2022-08-16T23:50:28.222Z,28.20
2022-08-16T23:53:20.918Z,28.20
2022-08-16T23:56:15.535Z,28.20
2022-08-16T23:59:05.852Z,28.19
